sensor_id;sensor_type;location;lat;lon;timestamp;P1;durP1;ratioP1;P2;durP2;ratioP2
60582;SDS011;46415;47.536;19.066;2023-02-11T00:01:33;13.70;;;9.40;;
60582;SDS011;46415;47.536;19.066;2023-02-11T00:04:37;16.70;;;10.23;;
60582;SDS011;46415;47.536;19.066;2023-02-11T00:07:40;12.50;;;7.97;;
60582;SDS011;46415;47.536;19.066;2023-02-11T00:10:43;17.92;;;10.90;;
60582;SDS011;46415;47.536;19.066;2023-02-11T00:13:47;11.73;;;7.45;;
60582;SDS011;46415;47.536;19.066;2023-02-11T00:16:51;20.00;;;10.07;;
60582;SDS011;46415;47.536;19.066;2023-02-11T00:19:53;18.92;;;9.55;;
60582;SDS011;46415;47.536;19.066;2023-02-11T00:22:56;25.23;;;12.65;;
60582;SDS011;46415;47.536;19.066;2023-02-11T00:25:59;14.30;;;10.55;;
60582;SDS011;46415;47.536;19.066;2023-02-11T00:29:02;15.23;;;8.50;;
60582;SDS011;46415;47.536;19.066;2023-02-11T00:32:06;13.73;;;8.68;;
60582;SDS011;46415;47.536;19.066;2023-02-11T00:35:10;18.90;;;8.60;;
60582;SDS011;46415;47.536;19.066;2023-02-11T00:38:13;20.27;;;11.68;;
60582;SDS011;46415;47.536;19.066;2023-02-11T00:41:16;21.42;;;10.32;;
60582;SDS011;46415;47.536;19.066;2023-02-11T00:44:20;26.52;;;8.82;;
60582;SDS011;46415;47.536;19.066;2023-02-11T00:47:23;13.48;;;8.30;;
60582;SDS011;46415;47.536;19.066;2023-02-11T00:50:26;13.52;;;8.10;;
60582;SDS011;46415;47.536;19.066;2023-02-11T00:53:30;11.82;;;10.57;;
60582;SDS011;46415;47.536;19.066;2023-02-11T00:56:33;19.75;;;11.65;;
60582;SDS011;46415;47.536;19.066;2023-02-11T00:59:37;16.87;;;9.88;;
60582;SDS011;46415;47.536;19.066;2023-02-11T01:02:40;15.82;;;9.00;;
60582;SDS011;46415;47.536;19.066;2023-02-11T01:05:46;11.25;;;8.43;;
60582;SDS011;46415;47.536;19.066;2023-02-11T01:08:49;15.13;;;9.23;;
60582;SDS011;46415;47.536;19.066;2023-02-11T01:11:52;18.67;;;9.20;;
60582;SDS011;46415;47.536;19.066;2023-02-11T01:14:54;18.80;;;9.32;;
60582;SDS011;46415;47.536;19.066;2023-02-11T01:17:57;18.70;;;9.77;;
60582;SDS011;46415;47.536;19.066;2023-02-11T01:21:00;14.13;;;8.60;;
60582;SDS011;46415;47.536;19.066;2023-02-11T01:24:03;19.20;;;10.32;;
60582;SDS011;46415;47.536;19.066;2023-02-11T01:27:06;18.30;;;10.32;;
60582;SDS011;46415;47.536;19.066;2023-02-11T01:30:10;20.98;;;11.70;;
60582;SDS011;46415;47.536;19.066;2023-02-11T01:33:14;10.27;;;7.25;;
60582;SDS011;46415;47.536;19.066;2023-02-11T01:36:17;15.70;;;7.97;;
60582;SDS011;46415;47.536;19.066;2023-02-11T01:39:20;16.42;;;10.23;;
60582;SDS011;46415;47.536;19.066;2023-02-11T01:42:23;25.15;;;9.98;;
60582;SDS011;46415;47.536;19.066;2023-02-11T01:48:49;12.37;;;9.70;;
60582;SDS011;46415;47.536;19.066;2023-02-11T01:52:00;15.07;;;8.73;;
60582;SDS011;46415;47.536;19.066;2023-02-11T01:55:09;15.68;;;10.35;;
60582;SDS011;46415;47.536;19.066;2023-02-11T01:58:33;15.90;;;9.75;;
60582;SDS011;46415;47.536;19.066;2023-02-11T02:01:37;17.70;;;8.50;;
60582;SDS011;46415;47.536;19.066;2023-02-11T02:04:51;17.02;;;9.90;;
60582;SDS011;46415;47.536;19.066;2023-02-11T02:11:06;28.27;;;9.02;;
60582;SDS011;46415;47.536;19.066;2023-02-11T02:14:11;12.88;;;9.02;;
60582;SDS011;46415;47.536;19.066;2023-02-11T02:17:37;22.62;;;10.52;;
60582;SDS011;46415;47.536;19.066;2023-02-11T02:27:25;22.60;;;9.82;;
60582;SDS011;46415;47.536;19.066;2023-02-11T02:34:12;25.60;;;10.90;;
60582;SDS011;46415;47.536;19.066;2023-02-11T02:40:51;17.23;;;8.55;;
60582;SDS011;46415;47.536;19.066;2023-02-11T02:44:03;18.80;;;10.05;;
60582;SDS011;46415;47.536;19.066;2023-02-11T02:47:06;13.65;;;9.30;;
60582;SDS011;46415;47.536;19.066;2023-02-11T02:50:09;11.73;;;8.70;;
60582;SDS011;46415;47.536;19.066;2023-02-11T03:00:33;11.98;;;8.13;;
60582;SDS011;46415;47.536;19.066;2023-02-11T03:10:28;9.40;;;7.55;;
60582;SDS011;46415;47.536;19.066;2023-02-11T03:13:33;14.77;;;7.53;;
60582;SDS011;46415;47.536;19.066;2023-02-11T03:16:38;12.43;;;8.38;;
60582;SDS011;46415;47.536;19.066;2023-02-11T03:19:42;12.37;;;8.38;;
60582;SDS011;46415;47.536;19.066;2023-02-11T03:32:39;14.20;;;6.95;;
60582;SDS011;46415;47.536;19.066;2023-02-11T03:35:58;20.67;;;7.82;;
60582;SDS011;46415;47.536;19.066;2023-02-11T03:39:04;13.07;;;8.93;;
60582;SDS011;46415;47.536;19.066;2023-02-11T03:42:08;14.13;;;8.85;;
60582;SDS011;46415;47.536;19.066;2023-02-11T03:45:14;17.90;;;10.85;;
60582;SDS011;46415;47.536;19.066;2023-02-11T03:48:22;19.47;;;9.40;;
60582;SDS011;46415;47.536;19.066;2023-02-11T03:51:29;23.92;;;9.55;;
60582;SDS011;46415;47.536;19.066;2023-02-11T03:54:34;12.77;;;7.85;;
60582;SDS011;46415;47.536;19.066;2023-02-11T03:57:39;14.00;;;7.22;;
60582;SDS011;46415;47.536;19.066;2023-02-11T04:00:43;11.73;;;7.20;;
60582;SDS011;46415;47.536;19.066;2023-02-11T04:03:47;17.20;;;9.45;;
60582;SDS011;46415;47.536;19.066;2023-02-11T04:06:49;13.52;;;8.73;;
60582;SDS011;46415;47.536;19.066;2023-02-11T04:09:52;8.50;;;7.18;;
60582;SDS011;46415;47.536;19.066;2023-02-11T04:12:55;15.98;;;9.35;;
60582;SDS011;46415;47.536;19.066;2023-02-11T04:15:58;13.40;;;7.95;;
60582;SDS011;46415;47.536;19.066;2023-02-11T04:19:01;8.82;;;7.07;;
60582;SDS011;46415;47.536;19.066;2023-02-11T04:22:04;15.57;;;9.55;;
60582;SDS011;46415;47.536;19.066;2023-02-11T04:25:07;13.75;;;7.62;;
60582;SDS011;46415;47.536;19.066;2023-02-11T04:28:11;10.00;;;7.30;;
60582;SDS011;46415;47.536;19.066;2023-02-11T04:31:13;15.25;;;8.70;;
60582;SDS011;46415;47.536;19.066;2023-02-11T04:34:17;15.70;;;11.02;;
60582;SDS011;46415;47.536;19.066;2023-02-11T04:37:19;26.33;;;11.57;;
60582;SDS011;46415;47.536;19.066;2023-02-11T04:40:22;13.90;;;8.10;;
60582;SDS011;46415;47.536;19.066;2023-02-11T04:43:25;15.80;;;7.93;;
60582;SDS011;46415;47.536;19.066;2023-02-11T04:46:28;20.85;;;11.30;;
60582;SDS011;46415;47.536;19.066;2023-02-11T04:49:31;25.80;;;11.18;;
60582;SDS011;46415;47.536;19.066;2023-02-11T04:52:33;23.12;;;8.43;;
60582;SDS011;46415;47.536;19.066;2023-02-11T04:55:36;13.50;;;9.50;;
60582;SDS011;46415;47.536;19.066;2023-02-11T04:58:39;17.10;;;13.40;;
60582;SDS011;46415;47.536;19.066;2023-02-11T05:01:41;14.48;;;8.80;;
60582;SDS011;46415;47.536;19.066;2023-02-11T05:04:44;16.40;;;10.90;;
60582;SDS011;46415;47.536;19.066;2023-02-11T05:07:47;27.65;;;9.43;;
60582;SDS011;46415;47.536;19.066;2023-02-11T05:10:50;21.70;;;12.37;;
60582;SDS011;46415;47.536;19.066;2023-02-11T05:13:53;21.42;;;11.30;;
60582;SDS011;46415;47.536;19.066;2023-02-11T05:16:56;19.80;;;10.80;;
60582;SDS011;46415;47.536;19.066;2023-02-11T05:19:59;18.50;;;13.60;;
60582;SDS011;46415;47.536;19.066;2023-02-11T05:23:01;14.13;;;9.65;;
60582;SDS011;46415;47.536;19.066;2023-02-11T05:26:04;18.10;;;11.63;;
60582;SDS011;46415;47.536;19.066;2023-02-11T05:29:08;21.15;;;12.48;;
60582;SDS011;46415;47.536;19.066;2023-02-11T05:32:10;18.15;;;10.23;;
60582;SDS011;46415;47.536;19.066;2023-02-11T05:35:14;20.52;;;11.15;;
60582;SDS011;46415;47.536;19.066;2023-02-11T05:38:17;18.80;;;10.52;;
60582;SDS011;46415;47.536;19.066;2023-02-11T05:41:20;15.98;;;10.18;;
60582;SDS011;46415;47.536;19.066;2023-02-11T05:44:23;23.35;;;14.40;;
60582;SDS011;46415;47.536;19.066;2023-02-11T05:47:26;21.85;;;11.25;;
60582;SDS011;46415;47.536;19.066;2023-02-11T05:50:28;21.90;;;14.02;;
60582;SDS011;46415;47.536;19.066;2023-02-11T05:53:31;22.23;;;11.52;;
60582;SDS011;46415;47.536;19.066;2023-02-11T05:56:34;19.80;;;10.70;;
60582;SDS011;46415;47.536;19.066;2023-02-11T05:59:37;19.40;;;12.00;;
60582;SDS011;46415;47.536;19.066;2023-02-11T06:02:39;25.35;;;11.45;;
60582;SDS011;46415;47.536;19.066;2023-02-11T06:05:43;17.85;;;10.93;;
60582;SDS011;46415;47.536;19.066;2023-02-11T06:08:47;18.02;;;11.68;;
60582;SDS011;46415;47.536;19.066;2023-02-11T06:11:50;21.12;;;11.30;;
60582;SDS011;46415;47.536;19.066;2023-02-11T06:14:53;14.70;;;11.65;;
60582;SDS011;46415;47.536;19.066;2023-02-11T06:17:56;20.20;;;10.30;;
60582;SDS011;46415;47.536;19.066;2023-02-11T06:20:59;24.50;;;12.63;;
60582;SDS011;46415;47.536;19.066;2023-02-11T06:24:02;20.95;;;10.52;;
60582;SDS011;46415;47.536;19.066;2023-02-11T06:27:05;31.25;;;12.35;;
60582;SDS011;46415;47.536;19.066;2023-02-11T06:30:08;18.23;;;12.35;;
60582;SDS011;46415;47.536;19.066;2023-02-11T06:33:12;28.65;;;12.68;;
60582;SDS011;46415;47.536;19.066;2023-02-11T06:36:16;19.45;;;11.10;;
60582;SDS011;46415;47.536;19.066;2023-02-11T06:39:20;19.67;;;10.10;;
60582;SDS011;46415;47.536;19.066;2023-02-11T06:42:24;25.02;;;12.85;;
60582;SDS011;46415;47.536;19.066;2023-02-11T06:45:27;26.83;;;13.45;;
60582;SDS011;46415;47.536;19.066;2023-02-11T06:48:30;21.40;;;11.93;;
60582;SDS011;46415;47.536;19.066;2023-02-11T06:51:33;24.77;;;13.85;;
60582;SDS011;46415;47.536;19.066;2023-02-11T06:54:36;26.25;;;15.20;;
60582;SDS011;46415;47.536;19.066;2023-02-11T06:57:38;22.25;;;15.10;;
60582;SDS011;46415;47.536;19.066;2023-02-11T07:00:41;23.80;;;11.93;;
60582;SDS011;46415;47.536;19.066;2023-02-11T07:03:44;24.15;;;13.30;;
60582;SDS011;46415;47.536;19.066;2023-02-11T07:06:48;25.40;;;13.65;;
60582;SDS011;46415;47.536;19.066;2023-02-11T07:09:50;30.17;;;15.95;;
60582;SDS011;46415;47.536;19.066;2023-02-11T07:12:53;32.10;;;16.77;;
60582;SDS011;46415;47.536;19.066;2023-02-11T07:16:02;21.35;;;12.10;;
60582;SDS011;46415;47.536;19.066;2023-02-11T07:19:07;23.83;;;14.93;;
60582;SDS011;46415;47.536;19.066;2023-02-11T07:22:10;25.02;;;13.52;;
60582;SDS011;46415;47.536;19.066;2023-02-11T07:25:14;25.40;;;15.00;;
60582;SDS011;46415;47.536;19.066;2023-02-11T07:28:17;37.50;;;15.63;;
60582;SDS011;46415;47.536;19.066;2023-02-11T07:31:21;29.30;;;13.98;;
60582;SDS011;46415;47.536;19.066;2023-02-11T07:34:26;34.30;;;15.95;;
60582;SDS011;46415;47.536;19.066;2023-02-11T07:37:28;27.75;;;16.55;;
60582;SDS011;46415;47.536;19.066;2023-02-11T07:40:31;27.33;;;15.68;;
60582;SDS011;46415;47.536;19.066;2023-02-11T07:43:35;33.17;;;15.82;;
60582;SDS011;46415;47.536;19.066;2023-02-11T07:46:38;34.30;;;17.67;;
60582;SDS011;46415;47.536;19.066;2023-02-11T07:49:44;30.42;;;16.95;;
60582;SDS011;46415;47.536;19.066;2023-02-11T07:52:47;35.55;;;17.17;;
60582;SDS011;46415;47.536;19.066;2023-02-11T07:55:50;40.55;;;18.80;;
60582;SDS011;46415;47.536;19.066;2023-02-11T07:58:53;32.70;;;17.08;;
60582;SDS011;46415;47.536;19.066;2023-02-11T08:01:58;35.70;;;18.10;;
60582;SDS011;46415;47.536;19.066;2023-02-11T08:05:01;36.78;;;18.95;;
60582;SDS011;46415;47.536;19.066;2023-02-11T08:08:04;42.33;;;20.08;;
60582;SDS011;46415;47.536;19.066;2023-02-11T08:14:10;36.00;;;17.60;;
60582;SDS011;46415;47.536;19.066;2023-02-11T08:17:13;41.53;;;17.45;;
60582;SDS011;46415;47.536;19.066;2023-02-11T08:20:16;33.38;;;16.73;;
60582;SDS011;46415;47.536;19.066;2023-02-11T08:23:19;29.17;;;18.35;;
60582;SDS011;46415;47.536;19.066;2023-02-11T08:26:23;29.75;;;19.65;;
60582;SDS011;46415;47.536;19.066;2023-02-11T08:29:28;37.67;;;17.23;;
60582;SDS011;46415;47.536;19.066;2023-02-11T08:32:33;38.33;;;18.70;;
60582;SDS011;46415;47.536;19.066;2023-02-11T08:35:36;24.37;;;13.10;;
60582;SDS011;46415;47.536;19.066;2023-02-11T08:38:41;26.55;;;14.93;;
60582;SDS011;46415;47.536;19.066;2023-02-11T08:41:45;18.98;;;10.43;;
60582;SDS011;46415;47.536;19.066;2023-02-11T08:44:50;20.23;;;11.07;;
60582;SDS011;46415;47.536;19.066;2023-02-11T08:47:52;25.30;;;11.48;;
60582;SDS011;46415;47.536;19.066;2023-02-11T08:50:56;21.40;;;11.63;;
60582;SDS011;46415;47.536;19.066;2023-02-11T08:53:59;32.88;;;10.80;;
60582;SDS011;46415;47.536;19.066;2023-02-11T08:57:02;21.02;;;10.73;;
60582;SDS011;46415;47.536;19.066;2023-02-11T09:00:06;22.80;;;10.73;;
60582;SDS011;46415;47.536;19.066;2023-02-11T09:03:12;17.67;;;8.93;;
60582;SDS011;46415;47.536;19.066;2023-02-11T09:06:16;23.80;;;11.12;;
60582;SDS011;46415;47.536;19.066;2023-02-11T09:09:20;18.83;;;10.13;;
60582;SDS011;46415;47.536;19.066;2023-02-11T09:12:23;21.33;;;9.90;;
60582;SDS011;46415;47.536;19.066;2023-02-11T09:15:25;25.83;;;10.68;;
60582;SDS011;46415;47.536;19.066;2023-02-11T09:18:28;23.15;;;10.57;;
60582;SDS011;46415;47.536;19.066;2023-02-11T09:21:31;18.42;;;9.50;;
60582;SDS011;46415;47.536;19.066;2023-02-11T09:24:35;23.42;;;10.93;;
60582;SDS011;46415;47.536;19.066;2023-02-11T09:27:37;21.45;;;10.55;;
60582;SDS011;46415;47.536;19.066;2023-02-11T09:30:40;22.90;;;11.18;;
60582;SDS011;46415;47.536;19.066;2023-02-11T09:33:44;23.08;;;11.23;;
60582;SDS011;46415;47.536;19.066;2023-02-11T09:36:51;23.92;;;12.50;;
60582;SDS011;46415;47.536;19.066;2023-02-11T09:39:54;24.48;;;11.23;;
60582;SDS011;46415;47.536;19.066;2023-02-11T09:43:08;24.30;;;11.20;;
60582;SDS011;46415;47.536;19.066;2023-02-11T09:46:17;20.50;;;10.43;;
60582;SDS011;46415;47.536;19.066;2023-02-11T09:52:55;26.00;;;13.30;;
60582;SDS011;46415;47.536;19.066;2023-02-11T09:56:08;26.58;;;12.75;;
60582;SDS011;46415;47.536;19.066;2023-02-11T09:59:13;26.98;;;12.73;;
60582;SDS011;46415;47.536;19.066;2023-02-11T10:02:23;30.15;;;14.80;;
60582;SDS011;46415;47.536;19.066;2023-02-11T10:25:20;28.12;;;14.60;;
60582;SDS011;46415;47.536;19.066;2023-02-11T10:28:34;28.05;;;14.77;;
60582;SDS011;46415;47.536;19.066;2023-02-11T10:31:41;33.13;;;15.32;;
60582;SDS011;46415;47.536;19.066;2023-02-11T10:34:44;30.48;;;14.52;;
60582;SDS011;46415;47.536;19.066;2023-02-11T10:37:47;25.80;;;14.50;;
60582;SDS011;46415;47.536;19.066;2023-02-11T10:40:51;25.92;;;13.60;;
60582;SDS011;46415;47.536;19.066;2023-02-11T10:43:54;29.95;;;14.75;;
60582;SDS011;46415;47.536;19.066;2023-02-11T10:46:58;27.70;;;13.50;;
60582;SDS011;46415;47.536;19.066;2023-02-11T10:50:17;30.25;;;15.05;;
60582;SDS011;46415;47.536;19.066;2023-02-11T10:53:36;24.50;;;13.90;;
60582;SDS011;46415;47.536;19.066;2023-02-11T10:56:40;23.83;;;13.65;;
60582;SDS011;46415;47.536;19.066;2023-02-11T10:59:47;24.92;;;13.50;;
60582;SDS011;46415;47.536;19.066;2023-02-11T11:02:54;32.28;;;15.70;;
60582;SDS011;46415;47.536;19.066;2023-02-11T11:06:00;26.98;;;13.90;;
60582;SDS011;46415;47.536;19.066;2023-02-11T11:09:05;27.10;;;13.82;;
60582;SDS011;46415;47.536;19.066;2023-02-11T11:12:31;26.87;;;14.05;;
60582;SDS011;46415;47.536;19.066;2023-02-11T11:19:21;23.60;;;12.65;;
60582;SDS011;46415;47.536;19.066;2023-02-11T11:22:25;26.77;;;12.45;;
60582;SDS011;46415;47.536;19.066;2023-02-11T11:25:28;23.73;;;13.13;;
60582;SDS011;46415;47.536;19.066;2023-02-11T11:28:35;30.48;;;12.82;;
60582;SDS011;46415;47.536;19.066;2023-02-11T11:31:59;22.67;;;11.52;;
60582;SDS011;46415;47.536;19.066;2023-02-11T11:35:23;24.08;;;12.43;;
60582;SDS011;46415;47.536;19.066;2023-02-11T11:38:30;21.45;;;10.85;;
60582;SDS011;46415;47.536;19.066;2023-02-11T11:41:35;25.98;;;13.15;;
60582;SDS011;46415;47.536;19.066;2023-02-11T11:44:37;26.12;;;12.02;;
60582;SDS011;46415;47.536;19.066;2023-02-11T11:47:47;25.23;;;12.48;;
60582;SDS011;46415;47.536;19.066;2023-02-11T11:50:59;19.25;;;10.32;;
60582;SDS011;46415;47.536;19.066;2023-02-11T11:54:07;19.62;;;9.25;;
60582;SDS011;46415;47.536;19.066;2023-02-11T11:57:15;20.02;;;10.45;;
60582;SDS011;46415;47.536;19.066;2023-02-11T12:24:51;20.60;;;10.43;;
60582;SDS011;46415;47.536;19.066;2023-02-11T12:28:19;22.10;;;9.25;;
60582;SDS011;46415;47.536;19.066;2023-02-11T12:34:47;18.50;;;9.45;;
60582;SDS011;46415;47.536;19.066;2023-02-11T12:38:15;15.30;;;8.55;;
60582;SDS011;46415;47.536;19.066;2023-02-11T12:51:24;21.35;;;11.18;;
60582;SDS011;46415;47.536;19.066;2023-02-11T12:54:30;20.55;;;9.27;;
60582;SDS011;46415;47.536;19.066;2023-02-11T12:57:40;17.95;;;8.48;;
60582;SDS011;46415;47.536;19.066;2023-02-11T13:00:50;17.52;;;9.90;;
60582;SDS011;46415;47.536;19.066;2023-02-11T13:04:11;19.00;;;9.52;;
60582;SDS011;46415;47.536;19.066;2023-02-11T13:07:27;16.25;;;8.05;;
60582;SDS011;46415;47.536;19.066;2023-02-11T13:10:45;15.18;;;7.37;;
60582;SDS011;46415;47.536;19.066;2023-02-11T13:13:56;19.33;;;8.27;;
60582;SDS011;46415;47.536;19.066;2023-02-11T13:16:59;19.87;;;8.82;;
60582;SDS011;46415;47.536;19.066;2023-02-11T13:20:14;18.85;;;9.48;;
60582;SDS011;46415;47.536;19.066;2023-02-11T13:23:43;15.77;;;8.27;;
60582;SDS011;46415;47.536;19.066;2023-02-11T13:30:31;16.35;;;7.80;;
60582;SDS011;46415;47.536;19.066;2023-02-11T13:36:53;14.73;;;7.10;;
60582;SDS011;46415;47.536;19.066;2023-02-11T13:40:02;14.52;;;8.00;;
60582;SDS011;46415;47.536;19.066;2023-02-11T13:43:21;18.00;;;8.52;;
60582;SDS011;46415;47.536;19.066;2023-02-11T13:46:27;14.70;;;7.97;;
60582;SDS011;46415;47.536;19.066;2023-02-11T13:49:33;14.18;;;7.90;;
60582;SDS011;46415;47.536;19.066;2023-02-11T13:52:42;18.75;;;9.35;;
60582;SDS011;46415;47.536;19.066;2023-02-11T13:55:46;14.48;;;6.85;;
60582;SDS011;46415;47.536;19.066;2023-02-11T13:58:52;17.02;;;8.73;;
60582;SDS011;46415;47.536;19.066;2023-02-11T14:08:57;12.88;;;7.47;;
60582;SDS011;46415;47.536;19.066;2023-02-11T14:15:25;16.08;;;8.18;;
60582;SDS011;46415;47.536;19.066;2023-02-11T14:18:35;15.80;;;7.70;;
60582;SDS011;46415;47.536;19.066;2023-02-11T14:21:38;14.60;;;8.07;;
60582;SDS011;46415;47.536;19.066;2023-02-11T14:28:14;18.85;;;8.15;;
60582;SDS011;46415;47.536;19.066;2023-02-11T14:31:27;19.00;;;8.77;;
60582;SDS011;46415;47.536;19.066;2023-02-11T14:34:54;20.50;;;8.45;;
60582;SDS011;46415;47.536;19.066;2023-02-11T14:38:25;18.33;;;7.00;;
60582;SDS011;46415;47.536;19.066;2023-02-11T14:41:38;15.57;;;7.78;;
60582;SDS011;46415;47.536;19.066;2023-02-11T14:44:44;17.35;;;8.30;;
60582;SDS011;46415;47.536;19.066;2023-02-11T14:51:10;17.95;;;8.90;;
60582;SDS011;46415;47.536;19.066;2023-02-11T14:54:18;21.27;;;8.73;;
60582;SDS011;46415;47.536;19.066;2023-02-11T14:57:26;17.10;;;8.18;;
60582;SDS011;46415;47.536;19.066;2023-02-11T15:00:29;18.70;;;9.63;;
60582;SDS011;46415;47.536;19.066;2023-02-11T15:03:34;17.85;;;9.18;;
60582;SDS011;46415;47.536;19.066;2023-02-11T15:06:41;20.30;;;9.60;;
60582;SDS011;46415;47.536;19.066;2023-02-11T15:09:50;18.33;;;9.00;;
60582;SDS011;46415;47.536;19.066;2023-02-11T15:12:55;16.70;;;8.85;;
60582;SDS011;46415;47.536;19.066;2023-02-11T15:16:03;19.17;;;9.40;;
60582;SDS011;46415;47.536;19.066;2023-02-11T15:22:30;16.70;;;7.65;;
60582;SDS011;46415;47.536;19.066;2023-02-11T15:25:41;16.10;;;7.47;;
60582;SDS011;46415;47.536;19.066;2023-02-11T15:28:46;17.45;;;8.32;;
60582;SDS011;46415;47.536;19.066;2023-02-11T15:32:11;19.35;;;9.52;;
60582;SDS011;46415;47.536;19.066;2023-02-11T15:35:26;16.05;;;8.52;;
60582;SDS011;46415;47.536;19.066;2023-02-11T15:38:32;18.02;;;8.27;;
60582;SDS011;46415;47.536;19.066;2023-02-11T15:41:36;14.55;;;8.25;;
60582;SDS011;46415;47.536;19.066;2023-02-11T15:44:39;17.50;;;8.57;;
60582;SDS011;46415;47.536;19.066;2023-02-11T15:47:47;15.52;;;7.62;;
60582;SDS011;46415;47.536;19.066;2023-02-11T15:50:59;20.62;;;8.07;;
60582;SDS011;46415;47.536;19.066;2023-02-11T15:54:15;18.15;;;8.27;;
60582;SDS011;46415;47.536;19.066;2023-02-11T15:57:21;18.20;;;8.00;;
60582;SDS011;46415;47.536;19.066;2023-02-11T16:00:28;18.55;;;7.75;;
60582;SDS011;46415;47.536;19.066;2023-02-11T16:03:37;16.37;;;7.35;;
60582;SDS011;46415;47.536;19.066;2023-02-11T16:06:42;17.75;;;7.87;;
60582;SDS011;46415;47.536;19.066;2023-02-11T16:09:55;19.77;;;8.13;;
60582;SDS011;46415;47.536;19.066;2023-02-11T16:13:16;19.05;;;8.25;;
60582;SDS011;46415;47.536;19.066;2023-02-11T16:16:24;16.55;;;7.78;;
60582;SDS011;46415;47.536;19.066;2023-02-11T16:19:33;16.20;;;8.48;;
60582;SDS011;46415;47.536;19.066;2023-02-11T16:22:37;22.70;;;8.02;;
60582;SDS011;46415;47.536;19.066;2023-02-11T16:25:41;16.27;;;8.68;;
60582;SDS011;46415;47.536;19.066;2023-02-11T16:28:45;15.68;;;8.27;;
60582;SDS011;46415;47.536;19.066;2023-02-11T16:31:48;13.75;;;7.60;;
60582;SDS011;46415;47.536;19.066;2023-02-11T16:34:53;11.27;;;7.68;;
60582;SDS011;46415;47.536;19.066;2023-02-11T16:37:59;14.50;;;7.55;;
60582;SDS011;46415;47.536;19.066;2023-02-11T16:41:02;14.87;;;7.40;;
60582;SDS011;46415;47.536;19.066;2023-02-11T16:44:05;15.93;;;8.57;;
60582;SDS011;46415;47.536;19.066;2023-02-11T16:47:16;12.82;;;6.40;;
60582;SDS011;46415;47.536;19.066;2023-02-11T16:50:24;18.52;;;7.93;;
60582;SDS011;46415;47.536;19.066;2023-02-11T16:53:27;20.12;;;8.55;;
60582;SDS011;46415;47.536;19.066;2023-02-11T16:56:38;26.42;;;7.75;;
60582;SDS011;46415;47.536;19.066;2023-02-11T16:59:41;13.07;;;6.97;;
60582;SDS011;46415;47.536;19.066;2023-02-11T17:02:44;15.02;;;6.40;;
60582;SDS011;46415;47.536;19.066;2023-02-11T17:05:47;16.62;;;7.97;;
60582;SDS011;46415;47.536;19.066;2023-02-11T17:08:57;16.37;;;8.00;;
60582;SDS011;46415;47.536;19.066;2023-02-11T17:12:00;13.62;;;6.60;;
60582;SDS011;46415;47.536;19.066;2023-02-11T17:15:03;15.50;;;7.12;;
60582;SDS011;46415;47.536;19.066;2023-02-11T17:18:11;11.02;;;6.65;;
60582;SDS011;46415;47.536;19.066;2023-02-11T17:21:15;13.90;;;7.65;;
60582;SDS011;46415;47.536;19.066;2023-02-11T17:24:19;13.35;;;6.57;;
60582;SDS011;46415;47.536;19.066;2023-02-11T17:27:23;15.77;;;8.55;;
60582;SDS011;46415;47.536;19.066;2023-02-11T17:30:26;15.82;;;8.20;;
60582;SDS011;46415;47.536;19.066;2023-02-11T17:33:29;25.92;;;8.32;;
60582;SDS011;46415;47.536;19.066;2023-02-11T17:36:32;16.67;;;8.50;;
60582;SDS011;46415;47.536;19.066;2023-02-11T17:39:36;20.48;;;8.57;;
60582;SDS011;46415;47.536;19.066;2023-02-11T17:42:40;16.73;;;8.65;;
60582;SDS011;46415;47.536;19.066;2023-02-11T17:45:43;16.85;;;9.55;;
60582;SDS011;46415;47.536;19.066;2023-02-11T17:48:46;18.75;;;9.18;;
60582;SDS011;46415;47.536;19.066;2023-02-11T17:51:49;21.67;;;9.02;;
60582;SDS011;46415;47.536;19.066;2023-02-11T17:54:53;18.75;;;8.20;;
60582;SDS011;46415;47.536;19.066;2023-02-11T17:57:56;20.15;;;9.48;;
60582;SDS011;46415;47.536;19.066;2023-02-11T18:00:59;16.00;;;8.63;;
60582;SDS011;46415;47.536;19.066;2023-02-11T18:04:03;17.48;;;8.57;;
60582;SDS011;46415;47.536;19.066;2023-02-11T18:07:07;15.80;;;8.77;;
60582;SDS011;46415;47.536;19.066;2023-02-11T18:10:10;20.73;;;9.43;;
60582;SDS011;46415;47.536;19.066;2023-02-11T18:13:13;16.20;;;9.02;;
60582;SDS011;46415;47.536;19.066;2023-02-11T18:16:16;23.33;;;9.75;;
60582;SDS011;46415;47.536;19.066;2023-02-11T18:19:19;16.87;;;8.70;;
60582;SDS011;46415;47.536;19.066;2023-02-11T18:22:23;21.30;;;9.13;;
60582;SDS011;46415;47.536;19.066;2023-02-11T18:25:27;17.02;;;7.68;;
60582;SDS011;46415;47.536;19.066;2023-02-11T18:28:32;21.42;;;9.90;;
60582;SDS011;46415;47.536;19.066;2023-02-11T18:31:35;21.30;;;9.30;;
60582;SDS011;46415;47.536;19.066;2023-02-11T18:34:39;17.10;;;8.35;;
60582;SDS011;46415;47.536;19.066;2023-02-11T18:37:43;17.35;;;10.65;;
60582;SDS011;46415;47.536;19.066;2023-02-11T18:40:46;21.27;;;9.40;;
60582;SDS011;46415;47.536;19.066;2023-02-11T18:43:51;18.80;;;9.43;;
60582;SDS011;46415;47.536;19.066;2023-02-11T18:46:55;14.93;;;8.63;;
60582;SDS011;46415;47.536;19.066;2023-02-11T18:49:58;15.70;;;7.60;;
60582;SDS011;46415;47.536;19.066;2023-02-11T18:53:01;17.92;;;9.30;;
60582;SDS011;46415;47.536;19.066;2023-02-11T18:56:16;19.62;;;9.25;;
60582;SDS011;46415;47.536;19.066;2023-02-11T18:59:22;15.10;;;7.45;;
60582;SDS011;46415;47.536;19.066;2023-02-11T19:02:24;16.17;;;8.70;;
60582;SDS011;46415;47.536;19.066;2023-02-11T19:05:28;18.35;;;8.65;;
60582;SDS011;46415;47.536;19.066;2023-02-11T19:08:34;21.12;;;9.50;;
60582;SDS011;46415;47.536;19.066;2023-02-11T19:11:38;16.83;;;8.45;;
60582;SDS011;46415;47.536;19.066;2023-02-11T19:14:56;18.83;;;10.23;;
60582;SDS011;46415;47.536;19.066;2023-02-11T19:18:00;18.85;;;8.95;;
60582;SDS011;46415;47.536;19.066;2023-02-11T19:21:10;18.77;;;8.25;;
60582;SDS011;46415;47.536;19.066;2023-02-11T19:24:14;17.67;;;8.88;;
60582;SDS011;46415;47.536;19.066;2023-02-11T19:27:21;14.73;;;8.80;;
60582;SDS011;46415;47.536;19.066;2023-02-11T19:30:25;21.48;;;10.05;;
60582;SDS011;46415;47.536;19.066;2023-02-11T19:33:28;21.42;;;10.32;;
60582;SDS011;46415;47.536;19.066;2023-02-11T19:36:31;19.85;;;10.98;;
60582;SDS011;46415;47.536;19.066;2023-02-11T19:39:35;17.73;;;9.32;;
60582;SDS011;46415;47.536;19.066;2023-02-11T19:42:38;16.67;;;9.02;;
60582;SDS011;46415;47.536;19.066;2023-02-11T19:45:41;16.35;;;9.05;;
60582;SDS011;46415;47.536;19.066;2023-02-11T19:48:44;17.40;;;8.75;;
60582;SDS011;46415;47.536;19.066;2023-02-11T19:51:51;20.52;;;8.77;;
60582;SDS011;46415;47.536;19.066;2023-02-11T19:54:57;21.33;;;9.18;;
60582;SDS011;46415;47.536;19.066;2023-02-11T19:58:00;19.60;;;10.00;;
60582;SDS011;46415;47.536;19.066;2023-02-11T20:01:10;22.98;;;9.57;;
60582;SDS011;46415;47.536;19.066;2023-02-11T20:04:16;18.77;;;9.40;;
60582;SDS011;46415;47.536;19.066;2023-02-11T20:07:20;18.55;;;9.32;;
60582;SDS011;46415;47.536;19.066;2023-02-11T20:10:23;18.90;;;9.75;;
60582;SDS011;46415;47.536;19.066;2023-02-11T20:13:26;17.08;;;9.13;;
60582;SDS011;46415;47.536;19.066;2023-02-11T20:16:31;15.38;;;8.95;;
60582;SDS011;46415;47.536;19.066;2023-02-11T20:22:52;17.10;;;7.50;;